createdAt,value
2018-12-07T00:02:05.599Z,3.30
2018-12-07T00:04:34.067Z,3.30
2018-12-07T00:07:02.530Z,3.40
2018-12-07T00:09:30.997Z,3.40
2018-12-07T00:11:59.470Z,3.40
2018-12-07T00:14:27.932Z,3.40
2018-12-07T00:16:57.143Z,3.50
2018-12-07T00:19:25.746Z,3.40
2018-12-07T00:21:54.219Z,3.40
2018-12-07T00:24:22.707Z,3.50
2018-12-07T00:26:51.185Z,3.50
2018-12-07T00:29:19.656Z,3.50
2018-12-07T00:31:48.369Z,3.50
2018-12-07T00:34:16.826Z,3.50
2018-12-07T00:36:45.298Z,3.50
2018-12-07T00:39:14.333Z,3.50
2018-12-07T00:41:42.807Z,3.50
2018-12-07T00:44:11.284Z,3.50
2018-12-07T00:46:39.730Z,3.50
2018-12-07T00:49:08.213Z,3.50
2018-12-07T00:51:36.668Z,3.50
2018-12-07T00:54:05.155Z,3.60
2018-12-07T00:56:33.626Z,3.60
2018-12-07T00:59:02.092Z,3.60
2018-12-07T01:01:30.586Z,3.60
2018-12-07T01:03:59.045Z,3.60
2018-12-07T01:06:27.528Z,3.70
2018-12-07T01:08:56.089Z,3.60
2018-12-07T01:11:24.539Z,3.70
2018-12-07T01:13:53.026Z,3.60
2018-12-07T01:16:21.492Z,3.60
2018-12-07T01:18:49.963Z,3.70
2018-12-07T01:21:18.418Z,3.60
2018-12-07T01:23:46.890Z,3.60
2018-12-07T01:26:15.362Z,3.50
2018-12-07T01:28:43.835Z,3.50
2018-12-07T01:31:12.306Z,3.60
2018-12-07T01:33:40.774Z,3.60
2018-12-07T01:36:09.250Z,3.60
2018-12-07T01:38:37.779Z,3.60
2018-12-07T01:41:06.275Z,3.60
2018-12-07T01:43:34.738Z,3.60
2018-12-07T01:46:03.191Z,3.60
2018-12-07T01:48:31.796Z,3.60
2018-12-07T01:51:00.282Z,3.50
2018-12-07T01:53:28.743Z,3.50
2018-12-07T01:55:57.502Z,3.50
2018-12-07T01:58:26.389Z,3.60
2018-12-07T02:00:54.854Z,3.50
2018-12-07T02:03:23.318Z,3.40
2018-12-07T02:05:51.799Z,3.40
2018-12-07T02:08:20.254Z,3.40
2018-12-07T02:10:48.710Z,3.30
2018-12-07T02:13:17.179Z,3.40
2018-12-07T02:15:45.686Z,3.40
2018-12-07T02:18:14.150Z,3.40
2018-12-07T02:20:42.622Z,3.40
2018-12-07T02:23:11.399Z,3.30
2018-12-07T02:25:39.860Z,3.40
2018-12-07T02:28:08.310Z,3.40
2018-12-07T02:30:36.782Z,3.40
2018-12-07T02:33:05.271Z,3.40
2018-12-07T02:35:33.733Z,3.30
2018-12-07T02:38:02.199Z,3.30
2018-12-07T02:40:30.654Z,3.30
2018-12-07T02:42:59.106Z,3.30
2018-12-07T02:45:27.583Z,3.10
2018-12-07T02:47:56.042Z,3.10
2018-12-07T02:50:24.689Z,3.10
2018-12-07T02:52:53.159Z,3.10
2018-12-07T02:55:21.651Z,3.10
2018-12-07T02:57:50.127Z,3.10
2018-12-07T03:00:18.610Z,2.90
2018-12-07T03:02:47.105Z,3.00
2018-12-07T03:05:15.610Z,2.90
2018-12-07T03:07:44.123Z,2.90
2018-12-07T03:10:12.618Z,2.90
2018-12-07T03:12:41.091Z,2.80
2018-12-07T03:15:09.714Z,2.90
2018-12-07T03:17:38.315Z,2.80
2018-12-07T03:20:06.958Z,2.90
2018-12-07T03:22:35.991Z,2.80
2018-12-07T03:25:05.353Z,2.80
2018-12-07T03:27:33.831Z,2.70
2018-12-07T03:30:02.536Z,2.70
2018-12-07T03:32:31.698Z,2.70
2018-12-07T03:35:00.218Z,2.70
2018-12-07T03:37:28.756Z,2.70
2018-12-07T03:39:57.210Z,2.70
2018-12-07T03:42:25.683Z,2.70
2018-12-07T03:44:54.130Z,2.70
2018-12-07T03:47:22.583Z,2.70
2018-12-07T03:49:51.076Z,2.70
2018-12-07T03:52:19.526Z,2.60
2018-12-07T03:54:47.994Z,2.70
2018-12-07T03:57:16.470Z,2.60
2018-12-07T03:59:44.954Z,2.60
2018-12-07T04:02:13.435Z,2.60
2018-12-07T04:04:41.900Z,2.60
2018-12-07T04:07:10.377Z,2.60
2018-12-07T04:09:38.834Z,2.60
2018-12-07T04:12:07.291Z,2.60
2018-12-07T04:14:35.906Z,2.50
2018-12-07T04:17:04.385Z,2.50
2018-12-07T04:19:32.839Z,2.50
2018-12-07T04:22:01.295Z,2.50
2018-12-07T04:24:29.777Z,2.50
2018-12-07T04:26:58.262Z,2.50
2018-12-07T04:29:26.752Z,2.50
2018-12-07T04:31:55.479Z,2.60
2018-12-07T04:34:23.950Z,2.60
2018-12-07T04:36:52.411Z,2.60
2018-12-07T04:39:20.878Z,2.60
2018-12-07T04:41:49.339Z,2.60
2018-12-07T04:44:17.792Z,2.60
2018-12-07T04:46:46.263Z,2.50
2018-12-07T04:49:14.740Z,2.50
2018-12-07T04:51:43.195Z,2.50
2018-12-07T04:54:11.658Z,2.50
2018-12-07T04:56:40.143Z,2.50
2018-12-07T04:59:08.604Z,2.60
2018-12-07T05:01:37.064Z,2.60
2018-12-07T05:04:05.539Z,2.60
2018-12-07T05:06:34.006Z,2.60
2018-12-07T05:09:02.942Z,2.60
2018-12-07T05:11:31.408Z,2.60
2018-12-07T05:13:59.867Z,2.60
2018-12-07T05:16:28.327Z,2.60
2018-12-07T05:18:56.790Z,2.70
2018-12-07T05:21:25.267Z,2.70
2018-12-07T05:23:53.769Z,2.60
2018-12-07T05:26:22.258Z,2.60
2018-12-07T05:28:50.706Z,2.60
2018-12-07T05:31:19.174Z,2.60
2018-12-07T05:33:47.854Z,2.70
2018-12-07T05:36:16.314Z,2.70
2018-12-07T05:38:44.778Z,2.70
2018-12-07T05:41:13.270Z,2.70
2018-12-07T05:43:57.963Z,2.70
2018-12-07T05:46:26.564Z,2.70
2018-12-07T05:48:55.022Z,2.70
2018-12-07T05:51:23.490Z,2.70
2018-12-07T05:53:51.974Z,2.70
2018-12-07T05:56:20.443Z,2.70
2018-12-07T05:58:48.911Z,2.70
2018-12-07T06:01:17.371Z,2.70
2018-12-07T06:03:45.847Z,2.70
2018-12-07T06:06:14.414Z,2.80
2018-12-07T06:08:42.872Z,2.80
2018-12-07T06:11:11.331Z,2.80
2018-12-07T06:13:39.803Z,2.80
2018-12-07T06:16:08.277Z,2.80
2018-12-07T06:18:36.746Z,2.90
2018-12-07T06:21:05.222Z,2.80
2018-12-07T06:23:34.318Z,2.80
2018-12-07T06:26:02.862Z,2.80
2018-12-07T06:28:31.473Z,2.90
2018-12-07T06:30:59.942Z,2.90
2018-12-07T06:33:28.430Z,2.80
2018-12-07T06:35:56.917Z,2.90
2018-12-07T06:38:25.966Z,2.90
2018-12-07T06:40:54.472Z,2.90
2018-12-07T06:43:22.950Z,3.00
2018-12-07T06:45:51.410Z,2.90
2018-12-07T06:48:19.877Z,2.90
2018-12-07T06:50:48.346Z,2.90
2018-12-07T06:53:16.814Z,2.90
2018-12-07T06:55:45.282Z,2.90
2018-12-07T06:58:13.752Z,3.00
2018-12-07T07:00:42.222Z,3.00
2018-12-07T07:03:10.688Z,3.00
2018-12-07T07:05:39.164Z,3.00
2018-12-07T07:08:07.648Z,3.00
2018-12-07T07:10:36.146Z,3.00
2018-12-07T07:13:04.627Z,3.00
2018-12-07T07:15:33.105Z,3.00
2018-12-07T07:18:01.563Z,3.00
2018-12-07T07:20:30.039Z,3.00
2018-12-07T07:22:58.507Z,3.10
2018-12-07T07:25:26.967Z,3.00
2018-12-07T07:27:55.454Z,3.00
2018-12-07T07:30:23.932Z,3.00
2018-12-07T07:32:52.402Z,3.00
2018-12-07T07:35:20.866Z,3.10
2018-12-07T07:37:49.328Z,3.10
2018-12-07T07:40:17.785Z,3.10
2018-12-07T07:42:46.316Z,3.10
2018-12-07T07:45:14.802Z,3.10
2018-12-07T07:47:43.260Z,3.10
2018-12-07T07:50:11.748Z,3.10
2018-12-07T07:52:40.239Z,3.10
2018-12-07T07:55:08.850Z,3.10
2018-12-07T07:57:37.323Z,3.20
2018-12-07T08:00:07.321Z,3.10
2018-12-07T08:02:35.790Z,3.20
2018-12-07T08:05:04.821Z,3.10
2018-12-07T08:07:33.303Z,3.20
2018-12-07T08:10:01.760Z,3.20
2018-12-07T08:12:30.227Z,3.10
2018-12-07T08:14:58.686Z,3.20
2018-12-07T08:17:27.146Z,3.20
2018-12-07T08:19:55.623Z,3.20
2018-12-07T08:22:24.103Z,3.30
2018-12-07T08:24:52.590Z,3.20
2018-12-07T08:27:21.064Z,3.20
2018-12-07T08:29:49.538Z,3.20
2018-12-07T08:32:18.012Z,3.30
2018-12-07T08:34:46.499Z,3.30
2018-12-07T08:37:14.979Z,3.30
2018-12-07T08:39:43.451Z,3.30
2018-12-07T08:42:12.058Z,3.30
2018-12-07T08:44:40.947Z,3.30
2018-12-07T08:47:09.414Z,3.40
2018-12-07T08:49:43.271Z,3.40
2018-12-07T08:52:11.741Z,3.40
2018-12-07T08:54:40.242Z,3.50
2018-12-07T08:57:08.722Z,3.50
2018-12-07T08:59:37.195Z,3.50
2018-12-07T09:02:05.987Z,3.60
2018-12-07T09:04:34.453Z,3.60
2018-12-07T09:07:03.042Z,3.60
2018-12-07T09:09:33.538Z,3.60
2018-12-07T09:12:02.019Z,3.60
2018-12-07T09:14:30.478Z,3.60
2018-12-07T09:16:58.958Z,3.60
2018-12-07T09:19:27.449Z,3.60
2018-12-07T09:21:55.903Z,3.60
2018-12-07T09:24:24.387Z,3.60
2018-12-07T09:26:52.875Z,3.70
2018-12-07T09:29:21.338Z,3.70
2018-12-07T09:31:49.819Z,3.70
2018-12-07T09:34:18.274Z,3.70
2018-12-07T09:36:46.872Z,3.70
2018-12-07T09:39:15.402Z,3.70
2018-12-07T09:41:43.890Z,3.80
2018-12-07T09:44:12.349Z,3.80
2018-12-07T09:46:40.837Z,3.80
2018-12-07T09:49:09.294Z,3.80
2018-12-07T09:51:37.758Z,3.80
2018-12-07T09:54:06.223Z,3.80
2018-12-07T09:56:34.735Z,3.90
2018-12-07T09:59:03.210Z,3.90
2018-12-07T10:01:31.829Z,3.90
2018-12-07T10:04:00.307Z,4.00
2018-12-07T10:06:28.771Z,3.90
2018-12-07T10:08:57.234Z,3.90
2018-12-07T10:11:25.710Z,3.90
2018-12-07T10:13:54.166Z,4.00
2018-12-07T10:16:22.626Z,4.00
2018-12-07T10:18:51.082Z,4.00
2018-12-07T10:21:19.842Z,4.00
2018-12-07T10:23:48.310Z,4.00
2018-12-07T10:26:16.768Z,4.00
2018-12-07T10:28:45.230Z,4.00
2018-12-07T10:31:13.708Z,4.00
2018-12-07T10:33:42.182Z,3.90
2018-12-07T10:36:10.646Z,4.00
2018-12-07T10:38:39.110Z,3.90
2018-12-07T10:41:07.574Z,3.90
2018-12-07T10:43:36.046Z,3.90
2018-12-07T10:46:04.527Z,4.00
2018-12-07T10:48:32.987Z,4.00
2018-12-07T10:51:07.766Z,4.00
2018-12-07T10:53:31.951Z,4.00
2018-12-07T10:56:00.417Z,4.00
2018-12-07T10:58:28.878Z,4.10
2018-12-07T11:01:02.498Z,4.00
2018-12-07T11:03:36.219Z,4.00
2018-12-07T11:06:12.774Z,4.00
2018-12-07T11:08:46.812Z,4.00
2018-12-07T11:11:20.428Z,4.00
2018-12-07T11:16:00.780Z,4.10
2018-12-07T11:18:34.422Z,4.10
2018-12-07T11:21:08.066Z,4.00
2018-12-07T11:23:41.863Z,4.00
2018-12-07T11:26:15.686Z,4.10
2018-12-07T11:28:49.422Z,4.00
2018-12-07T11:31:23.014Z,3.90
2018-12-07T11:34:06.818Z,3.90
2018-12-07T11:36:35.306Z,3.90
2018-12-07T11:39:07.134Z,3.90
2018-12-07T11:41:35.594Z,3.90
2018-12-07T11:44:04.104Z,3.90
2018-12-07T11:46:32.570Z,3.90
2018-12-07T11:49:01.034Z,3.80
2018-12-07T11:51:29.518Z,3.80
2018-12-07T11:53:57.978Z,3.70
2018-12-07T11:56:26.476Z,3.60
2018-12-07T11:58:55.058Z,3.70
2018-12-07T12:01:23.534Z,3.60
2018-12-07T12:03:51.998Z,3.60
2018-12-07T12:06:20.471Z,3.60
2018-12-07T12:08:48.951Z,3.70
2018-12-07T12:11:17.399Z,3.70
2018-12-07T12:13:45.858Z,3.70
2018-12-07T12:16:14.322Z,3.70
2018-12-07T12:18:42.790Z,3.70
2018-12-07T12:21:11.269Z,3.60
2018-12-07T12:23:39.734Z,3.70
2018-12-07T12:26:08.198Z,3.70
2018-12-07T12:28:36.669Z,3.60
2018-12-07T12:31:05.136Z,3.60
2018-12-07T12:33:33.606Z,3.60
2018-12-07T12:36:02.194Z,3.70
2018-12-07T12:38:30.680Z,3.70
2018-12-07T12:40:59.130Z,3.70
2018-12-07T12:43:27.598Z,3.70
2018-12-07T12:45:56.067Z,3.60
2018-12-07T12:48:24.519Z,3.70
2018-12-07T12:50:55.146Z,3.70
2018-12-07T12:53:23.608Z,3.70
2018-12-07T12:55:52.079Z,3.70
2018-12-07T12:58:20.619Z,3.60
2018-12-07T13:00:49.097Z,3.70
2018-12-07T13:03:17.563Z,3.70
2018-12-07T13:05:46.038Z,3.60
2018-12-07T13:08:14.513Z,3.70
2018-12-07T13:10:42.979Z,3.70
2018-12-07T13:13:11.436Z,3.70
2018-12-07T13:15:40.134Z,3.80
2018-12-07T13:18:08.598Z,3.70
2018-12-07T13:20:37.071Z,3.70
2018-12-07T13:23:05.551Z,3.70
2018-12-07T13:25:34.024Z,3.70
2018-12-07T13:28:02.489Z,3.70
2018-12-07T13:30:30.979Z,3.70
2018-12-07T13:32:59.778Z,3.70
2018-12-07T13:35:28.331Z,3.70
2018-12-07T13:37:56.852Z,3.70
2018-12-07T13:40:25.561Z,3.70
2018-12-07T13:42:54.474Z,3.70
2018-12-07T13:45:23.103Z,3.60
2018-12-07T13:47:51.873Z,3.70
2018-12-07T13:50:26.281Z,3.70
2018-12-07T13:52:55.039Z,3.70
2018-12-07T13:55:24.208Z,3.70
2018-12-07T13:57:53.073Z,3.70
2018-12-07T14:00:21.611Z,3.60
2018-12-07T14:02:50.092Z,3.70
2018-12-07T14:05:19.163Z,3.70
2018-12-07T14:07:47.930Z,3.60
2018-12-07T14:10:16.541Z,3.60
2018-12-07T14:12:45.098Z,3.60
2018-12-07T14:15:13.814Z,3.50
2018-12-07T14:17:42.414Z,3.60
2018-12-07T14:20:10.987Z,3.60
2018-12-07T14:22:39.649Z,3.60
2018-12-07T14:25:08.719Z,3.50
2018-12-07T14:27:37.844Z,3.60
2018-12-07T14:30:08.947Z,3.50
2018-12-07T14:32:37.614Z,3.60
2018-12-07T14:35:07.450Z,3.60
2018-12-07T14:37:36.097Z,3.60
2018-12-07T14:40:06.787Z,3.60
2018-12-07T14:42:36.334Z,3.60
2018-12-07T14:45:06.641Z,3.50
2018-12-07T14:47:35.604Z,3.50
2018-12-07T14:50:05.003Z,3.50
2018-12-07T14:52:33.541Z,3.50
2018-12-07T14:55:02.209Z,3.50
2018-12-07T14:57:30.759Z,3.50
2018-12-07T14:59:59.423Z,3.50
2018-12-07T15:02:28.309Z,3.40
2018-12-07T15:04:56.889Z,3.40
2018-12-07T15:07:25.543Z,3.40
2018-12-07T15:09:54.661Z,3.40
2018-12-07T15:12:23.395Z,3.40
2018-12-07T15:14:52.212Z,3.40
2018-12-07T15:17:20.893Z,3.40
2018-12-07T15:19:49.699Z,3.40
2018-12-07T15:22:18.587Z,3.40
2018-12-07T15:24:47.767Z,3.40
2018-12-07T15:27:16.446Z,3.40
2018-12-07T15:29:45.313Z,3.30
2018-12-07T15:32:13.822Z,3.30
2018-12-07T15:34:42.392Z,3.40
2018-12-07T15:37:10.894Z,3.40
2018-12-07T15:39:39.388Z,3.40
2018-12-07T15:42:07.912Z,3.30
2018-12-07T15:44:36.498Z,3.40
2018-12-07T15:47:05.425Z,3.30
2018-12-07T15:49:34.109Z,3.30
2018-12-07T15:52:02.878Z,3.30
2018-12-07T15:54:31.684Z,3.30
2018-12-07T15:57:00.239Z,3.30
2018-12-07T15:59:34.521Z,3.30
2018-12-07T16:01:59.444Z,3.30
2018-12-07T16:04:28.248Z,3.30
2018-12-07T16:06:56.787Z,3.20
2018-12-07T16:09:25.351Z,3.20
2018-12-07T16:11:53.965Z,3.20
2018-12-07T16:14:22.497Z,3.20
2018-12-07T16:16:51.218Z,3.20
2018-12-07T16:19:19.980Z,3.20
2018-12-07T16:21:48.811Z,3.20
2018-12-07T16:24:17.421Z,3.20
2018-12-07T16:26:46.005Z,3.10
2018-12-07T16:29:14.847Z,3.20
2018-12-07T16:31:43.983Z,3.10
2018-12-07T16:34:12.940Z,3.10
2018-12-07T16:36:41.545Z,3.20
2018-12-07T16:39:10.082Z,3.20
2018-12-07T16:41:38.571Z,3.20
2018-12-07T16:44:07.514Z,3.20
2018-12-07T16:46:36.528Z,3.20
2018-12-07T16:49:05.707Z,3.20
2018-12-07T16:51:34.794Z,3.20
2018-12-07T16:54:03.967Z,3.20
2018-12-07T16:56:32.722Z,3.20
2018-12-07T16:59:01.322Z,3.20
2018-12-07T17:01:30.156Z,3.20
2018-12-07T17:03:58.876Z,3.20
2018-12-07T17:06:27.486Z,3.20
2018-12-07T17:08:56.017Z,3.20
2018-12-07T17:11:25.077Z,3.20
2018-12-07T17:13:54.132Z,3.10
2018-12-07T17:16:23.003Z,3.20
2018-12-07T17:18:51.492Z,3.30
2018-12-07T17:21:20.190Z,3.20
2018-12-07T17:23:48.712Z,3.40
2018-12-07T17:26:17.264Z,3.30
2018-12-07T17:28:45.748Z,3.30
2018-12-07T17:31:14.433Z,3.30
2018-12-07T17:33:43.057Z,3.40
2018-12-07T17:36:11.634Z,3.30
2018-12-07T17:38:40.161Z,3.30
2018-12-07T17:41:08.628Z,3.30
2018-12-07T17:43:37.222Z,3.40
2018-12-07T17:46:06.210Z,3.40
2018-12-07T17:48:35.319Z,3.30
2018-12-07T17:51:04.061Z,3.20
2018-12-07T17:53:32.537Z,3.20
2018-12-07T17:56:01.166Z,3.30
2018-12-07T17:58:29.996Z,3.20
2018-12-07T18:00:58.566Z,3.20
2018-12-07T18:03:27.034Z,3.20
2018-12-07T18:05:55.517Z,3.10
2018-12-07T18:08:24.159Z,3.20
2018-12-07T18:10:52.858Z,3.20
2018-12-07T18:13:21.960Z,3.10
2018-12-07T18:15:50.653Z,3.20
2018-12-07T18:18:19.445Z,3.20
2018-12-07T18:20:48.010Z,3.20
2018-12-07T18:23:16.572Z,3.20
2018-12-07T18:25:45.122Z,3.20
2018-12-07T18:28:13.782Z,3.20
2018-12-07T18:30:42.352Z,3.20
2018-12-07T18:33:11.129Z,3.20
2018-12-07T18:35:39.915Z,3.20
2018-12-07T18:38:09.062Z,3.10
2018-12-07T18:40:37.680Z,3.20
2018-12-07T18:43:06.230Z,3.30
2018-12-07T18:45:34.997Z,3.30
2018-12-07T18:48:03.785Z,3.30
2018-12-07T18:50:32.394Z,3.30
2018-12-07T18:53:00.871Z,3.20
2018-12-07T18:55:29.331Z,3.30
2018-12-07T18:57:58.224Z,3.30
2018-12-07T19:00:27.101Z,3.40
2018-12-07T19:02:55.758Z,3.30
2018-12-07T19:05:24.442Z,3.30
2018-12-07T19:07:53.038Z,3.30
2018-12-07T19:10:21.823Z,3.30
2018-12-07T19:12:50.734Z,3.40
2018-12-07T19:15:19.406Z,3.30
2018-12-07T19:17:47.874Z,3.40
2018-12-07T19:20:16.548Z,3.40
2018-12-07T19:22:45.041Z,3.40
2018-12-07T19:25:13.758Z,3.40
2018-12-07T19:27:42.294Z,3.40
2018-12-07T19:30:14.830Z,3.40
2018-12-07T19:32:42.137Z,3.20
2018-12-07T19:35:10.892Z,3.30
2018-12-07T19:37:39.537Z,3.30
2018-12-07T19:40:08.358Z,3.40
2018-12-07T19:42:36.903Z,3.40
2018-12-07T19:45:06.718Z,3.40
2018-12-07T19:47:35.269Z,3.30
2018-12-07T19:50:04.154Z,3.30
2018-12-07T19:52:33.031Z,3.30
2018-12-07T19:55:01.786Z,3.40
2018-12-07T19:57:30.533Z,3.30
2018-12-07T19:59:59.136Z,3.20
2018-12-07T20:02:27.621Z,3.20
2018-12-07T20:04:56.336Z,3.20
2018-12-07T20:07:24.871Z,3.20
2018-12-07T20:09:53.457Z,3.20
2018-12-07T20:12:22.048Z,3.20
2018-12-07T20:14:50.750Z,3.20
2018-12-07T20:17:19.489Z,3.20
2018-12-07T20:19:48.044Z,3.20
2018-12-07T20:22:16.829Z,3.20
2018-12-07T20:24:45.660Z,3.10
2018-12-07T20:27:14.420Z,3.10
2018-12-07T20:29:42.949Z,3.20
2018-12-07T20:32:11.504Z,3.20
2018-12-07T20:34:40.275Z,3.20
2018-12-07T20:37:09.109Z,3.30
2018-12-07T20:39:37.771Z,3.30
2018-12-07T20:42:06.397Z,3.20
2018-12-07T20:44:35.051Z,3.20
2018-12-07T20:47:03.926Z,3.10
2018-12-07T20:49:32.773Z,3.10
2018-12-07T20:52:02.350Z,3.10
2018-12-07T20:54:31.129Z,3.20
2018-12-07T20:56:59.813Z,3.20
2018-12-07T20:59:28.619Z,3.20
2018-12-07T21:01:57.305Z,3.20
2018-12-07T21:04:32.026Z,3.10
2018-12-07T21:08:11.708Z,3.00
2018-12-07T21:11:05.298Z,3.10
2018-12-07T21:13:45.235Z,3.10
2018-12-07T21:17:33.348Z,3.00
2018-12-07T21:20:13.322Z,3.00
2018-12-07T21:22:42.152Z,3.00
2018-12-07T21:25:10.760Z,3.00
2018-12-07T21:27:39.403Z,3.00
2018-12-07T21:33:09.157Z,3.00
2018-12-07T21:36:30.626Z,3.10
2018-12-07T21:38:59.204Z,3.00
2018-12-07T21:41:28.213Z,3.10
2018-12-07T21:43:57.279Z,3.00
2018-12-07T21:46:25.926Z,3.00
2018-12-07T21:48:54.646Z,3.10
2018-12-07T21:51:33.875Z,3.00
2018-12-07T21:54:02.693Z,3.00
2018-12-07T21:56:31.723Z,3.00
2018-12-07T21:59:00.351Z,3.10
2018-12-07T22:01:29.161Z,3.10
2018-12-07T22:03:58.059Z,3.00
2018-12-07T22:06:26.757Z,3.10
2018-12-07T22:08:55.970Z,3.10
2018-12-07T22:11:24.546Z,3.10
2018-12-07T22:13:53.064Z,3.10
2018-12-07T22:16:21.597Z,3.00
2018-12-07T22:18:50.186Z,3.10
2018-12-07T22:21:18.907Z,3.10
2018-12-07T22:23:48.041Z,3.10
2018-12-07T22:26:16.525Z,3.10
2018-12-07T22:28:45.147Z,3.10
2018-12-07T22:31:13.967Z,3.10
2018-12-07T22:33:42.669Z,3.20
2018-12-07T22:36:11.237Z,3.10
2018-12-07T22:38:40.282Z,3.20
2018-12-07T22:41:08.822Z,3.10
2018-12-07T22:43:37.449Z,3.20
2018-12-07T22:46:05.930Z,3.20
2018-12-07T22:48:34.475Z,3.20
2018-12-07T22:51:02.970Z,3.20
2018-12-07T22:53:31.430Z,3.20
2018-12-07T22:56:00.029Z,3.30
2018-12-07T22:58:28.490Z,3.30
2018-12-07T23:00:57.087Z,3.30
2018-12-07T23:03:25.541Z,3.30
2018-12-07T23:05:54.001Z,3.20
2018-12-07T23:08:22.466Z,3.20
2018-12-07T23:10:50.994Z,3.20
2018-12-07T23:13:19.468Z,3.30
2018-12-07T23:15:47.922Z,3.30
2018-12-07T23:18:16.390Z,3.40
2018-12-07T23:20:44.879Z,3.40
2018-12-07T23:23:13.350Z,3.40
2018-12-07T23:25:41.930Z,3.40
2018-12-07T23:28:10.390Z,3.40
2018-12-07T23:30:38.850Z,3.40
2018-12-07T23:33:07.313Z,3.40
2018-12-07T23:35:35.793Z,3.40
2018-12-07T23:38:04.346Z,3.40
2018-12-07T23:40:32.806Z,3.40
2018-12-07T23:43:02.558Z,3.50
2018-12-07T23:45:31.020Z,3.50
2018-12-07T23:47:59.497Z,3.50
2018-12-07T23:50:27.954Z,3.50
2018-12-07T23:52:56.420Z,3.50
2018-12-07T23:55:24.885Z,3.50
2018-12-07T23:57:53.339Z,3.60
